Ozuki Air Base, Japan

8:49 PM JST on September 02, 2014 (GMT +0900)
Kitakyushu | Change Station
CLOSE
Current Station
Airport
Location: Kitakyushu,
Elevation: 30 ft
Nearby Weather Stations

Elev 30 ft 33.85 °N, 131.04 °E | Updated 49 minutes ago

Mostly Cloudy
Mostly Cloudy
79 °F
Feels Like 79 °F
N
8
Wind Variable Wind from Variable

Today
High -- | Low -- °F
--% Chance of Precip.
Yesterday
High -- | Low -- °F
Precip. -- in
5:49 AM 6:41 PM
Waxing Crescent, 50% visible
Pressure 29.83 in
Visibility 6.2 miles
Clouds Few 2000 ft
Scattered Clouds 8000 ft
Mostly Cloudy 17000 ft
Dew Point 75 °F
Humidity 89%
Rainfall 0.00 in
Snow Depth Not available.
UV 0 out of 12
Pollen Not available.
Air Quality Not available.
Flu Activity Not available.
METAR RJFR 021100Z VRB07KT 9999 FEW020 SCT080 BKN170 26/24 Q1010

More Conditions Fewer Conditions

Pressure 29.83 in
Visibility 6.2 miles
Clouds Few 2000 ft
Scattered Clouds 8000 ft
Mostly Cloudy 17000 ft
Dew Point 75 °F
Humidity 89%
Rainfall 0.00 in
Snow Depth Not available.
UV 0 out of 12
Pollen Not available.
Air Quality Not available.
Flu Activity Not available.
METAR RJFR 021100Z VRB07KT 9999 FEW020 SCT080 BKN170 26/24 Q1010

More Conditions Fewer Conditions

10-Day Weather Forecast

Almanac

Astronomy

Sep. 02, 2014 Rise Set
Actual Time 5:49 AM JST 6:41 PM JST
Civil Twilight 5:24 AM JST 7:06 PM JST
Nautical Twilight 4:53 AM JST 7:36 PM JST
Astronomical Twilight 4:22 AM JST 8:07 PM JST
Moon 12:39 PM JST 11:20 PM JST
Length of Visible Light 13h 42m
Length of Day
12h 51m
Tomorrow will be 2m 2s shorter.
Waxing Crescent, 50% of the Moon is Illuminated
Today
Waxing Crescent
Sep 8
Full
Sep 15
Last Quarter
Sep 24
New
Oct 1
First Quarter

Yesterday's Extremes

Country Highs Country Lows

Community

WunderPhotos

Upload Photos

1,749,621 photos uploaded!

WunderBlogs® & News

By Dr. Jeff Masters
Director of Meteorology, Weather Underground
By Kari Strenfel
Meteorologist, Weather Underground
By Christopher C. Burt
Weather Historian, Weather Underground
September 2, 2014
September 2, 2014
September 2, 2014

Nearby

Snow Depth

Not available.

Earthquake Activity

City Distance Mag. Time & Date
No recent earthquake activity has been reported nearby.
Minimum magnitude displayed is 2.5.

Coastal Water Temperatures

Place Temperature
No Stations Reporting

Nearby Weather Stations